Aviation Digital Data Service (ADDS)

Output produced by METARs form (0238 UTC 22 July 2017)
found at http://www.aviationweather.gov/adds/metars/
 
FCBB 220200Z 25004KT 7000 BKN020CB 23/19 Q1015 NOSIG
TAF FCBB 212300Z 2200/2306 24004KT 7000 OVC020 
     PROB30 2204/2208 4000 BR
       
FCPP 220200Z 26003KT 4000 BR FEW010 OVC020 22/21 Q1015 NOSIG
TAF FCPP 212300Z 2200/2224 22004KT 6000 SCT010 BKN020 
     BECMG 2201/2203 4000 BR 
     BECMG 2207/2209 7000 NSW